createdAt,value
2023-02-02T00:00:22.633Z,100298.97
2023-02-02T00:02:49.171Z,100298.00
2023-02-02T00:05:15.938Z,100290.97
2023-02-02T00:07:42.413Z,100305.53
2023-02-02T00:10:09.476Z,100302.78
2023-02-02T00:12:35.913Z,100305.25
2023-02-02T00:15:02.565Z,100296.56
2023-02-02T00:17:29.019Z,100300.03
2023-02-02T00:19:55.728Z,100289.63
2023-02-02T00:22:22.304Z,100286.38
2023-02-02T00:24:48.793Z,100296.13
2023-02-02T00:27:15.281Z,100291.00
2023-02-02T00:29:42.354Z,100276.25
2023-02-02T00:32:08.850Z,100287.66
2023-02-02T00:34:35.352Z,100292.94
2023-02-02T00:37:01.898Z,100285.16
2023-02-02T00:39:28.624Z,100293.94
2023-02-02T00:41:55.623Z,100299.13
2023-02-02T00:44:40.987Z,100302.59
2023-02-02T00:47:07.567Z,100299.09
2023-02-02T00:49:33.981Z,100304.22
2023-02-02T00:52:00.547Z,100293.66
2023-02-02T00:54:30.016Z,100294.44
2023-02-02T00:56:56.502Z,100294.34
2023-02-02T00:59:22.972Z,100296.13
2023-02-02T01:01:49.495Z,100304.84
2023-02-02T01:04:18.720Z,100310.97
2023-02-02T01:06:46.175Z,100319.66
2023-02-02T01:09:12.657Z,100320.56
2023-02-02T01:11:39.137Z,100339.81
2023-02-02T01:14:05.642Z,100350.28
2023-02-02T01:16:32.314Z,100334.66
2023-02-02T01:18:59.820Z,100336.50
2023-02-02T01:21:29.210Z,100335.59
2023-02-02T01:23:56.331Z,100337.34
2023-02-02T01:26:22.837Z,100338.31
2023-02-02T01:28:49.408Z,100343.59
2023-02-02T01:31:19.000Z,100330.56
2023-02-02T01:33:47.390Z,100338.47
2023-02-02T01:36:19.380Z,100357.78
2023-02-02T01:38:46.449Z,100355.81
2023-02-02T01:41:24.876Z,100356.47
2023-02-02T01:44:04.042Z,100365.28
2023-02-02T01:46:33.410Z,100349.69
2023-02-02T01:49:10.581Z,100347.84
2023-02-02T01:51:54.228Z,100370.41
2023-02-02T01:54:35.085Z,100353.66
2023-02-02T01:57:08.025Z,100345.72
2023-02-02T01:59:35.381Z,100345.50
2023-02-02T02:02:03.088Z,100359.34
2023-02-02T02:04:32.136Z,100383.66
2023-02-02T02:07:02.826Z,100368.06
2023-02-02T02:09:30.422Z,100373.34
2023-02-02T02:11:56.960Z,100373.19
2023-02-02T02:14:42.586Z,100378.34
2023-02-02T02:17:21.374Z,100365.19
2023-02-02T02:20:37.311Z,100370.44
2023-02-02T02:23:34.006Z,100379.88
2023-02-02T02:26:39.788Z,100377.13
2023-02-02T02:29:51.795Z,100369.44
2023-02-02T02:32:23.564Z,100376.56
2023-02-02T02:35:09.872Z,100380.13
2023-02-02T02:37:46.977Z,100393.16
2023-02-02T02:40:35.547Z,100410.50
2023-02-02T02:43:14.680Z,100411.44
2023-02-02T02:45:44.640Z,100399.38
2023-02-02T02:48:12.782Z,100391.53
2023-02-02T02:50:39.260Z,100412.38
2023-02-02T02:53:11.348Z,100409.56
2023-02-02T02:56:16.615Z,100418.28
2023-02-02T02:58:58.710Z,100412.94
2023-02-02T03:01:34.582Z,100416.38
2023-02-02T03:04:28.737Z,100416.25
2023-02-02T03:07:00.580Z,100422.25
2023-02-02T03:09:34.815Z,100418.69
2023-02-02T03:12:01.880Z,100423.94
2023-02-02T03:14:28.446Z,100414.34
2023-02-02T03:16:54.885Z,100412.59
2023-02-02T03:19:21.698Z,100425.56
2023-02-02T03:21:48.201Z,100409.69
2023-02-02T03:24:14.718Z,100443.63
2023-02-02T03:26:41.387Z,100430.53
2023-02-02T03:29:07.873Z,100429.47
2023-02-02T03:31:34.410Z,100440.81
2023-02-02T03:34:01.227Z,100445.03
2023-02-02T03:36:28.139Z,100442.44
2023-02-02T03:38:54.620Z,100451.09
2023-02-02T03:41:21.125Z,100447.59
2023-02-02T03:43:47.541Z,100458.06
2023-02-02T03:46:14.004Z,100462.44
2023-02-02T03:48:41.767Z,100460.66
2023-02-02T03:51:14.691Z,100472.84
2023-02-02T03:53:47.347Z,100474.63
2023-02-02T03:56:14.823Z,100479.84
2023-02-02T03:58:41.292Z,100483.31
2023-02-02T04:01:11.965Z,100482.31
2023-02-02T04:03:38.553Z,100485.72
2023-02-02T04:06:05.519Z,100492.59
2023-02-02T04:08:33.923Z,100494.38
2023-02-02T04:11:00.450Z,100491.75
2023-02-02T04:13:26.881Z,100486.47
2023-02-02T04:16:01.459Z,100490.88
2023-02-02T04:18:29.038Z,100498.78
2023-02-02T04:20:57.377Z,100499.69
2023-02-02T04:23:23.891Z,100499.69
2023-02-02T04:25:51.662Z,100496.13
2023-02-02T04:28:18.651Z,100512.69
2023-02-02T04:30:45.157Z,100524.97
2023-02-02T04:33:11.662Z,100518.03
2023-02-02T04:35:38.096Z,100517.94
2023-02-02T04:38:04.593Z,100530.22
2023-02-02T04:40:31.364Z,100530.97
2023-02-02T04:42:58.395Z,100524.75
2023-02-02T04:45:25.146Z,100522.97
2023-02-02T04:47:51.864Z,100529.09
2023-02-02T04:50:18.517Z,100540.44
2023-02-02T04:52:45.015Z,100525.53
2023-02-02T04:55:11.516Z,100534.25
2023-02-02T04:57:38.004Z,100542.09
2023-02-02T05:00:05.013Z,100542.09
2023-02-02T05:02:31.533Z,100549.91
2023-02-02T05:04:58.252Z,100558.06
2023-02-02T05:07:24.677Z,100554.94
2023-02-02T05:09:51.234Z,100551.66
2023-02-02T05:12:18.895Z,100559.50
2023-02-02T05:14:45.439Z,100570.06
2023-02-02T05:17:11.872Z,100564.81
2023-02-02T05:19:39.748Z,100561.31
2023-02-02T05:22:06.529Z,100569.25
2023-02-02T05:24:33.743Z,100569.22
2023-02-02T05:27:00.791Z,100570.06
2023-02-02T05:29:28.747Z,100579.63
2023-02-02T05:31:55.363Z,100578.03
2023-02-02T05:34:22.837Z,100579.94
2023-02-02T05:36:49.901Z,100580.94
2023-02-02T05:39:16.382Z,100583.69
2023-02-02T05:41:43.166Z,100582.84
2023-02-02T05:44:12.757Z,100599.56
2023-02-02T05:46:39.629Z,100588.13
2023-02-02T05:49:06.220Z,100587.16
2023-02-02T05:51:38.582Z,100594.91
2023-02-02T05:54:05.356Z,100605.25
2023-02-02T05:56:31.876Z,100599.94
2023-02-02T05:58:58.862Z,100595.41
2023-02-02T06:01:25.716Z,100599.69
2023-02-02T06:03:52.524Z,100603.16
2023-02-02T06:06:19.012Z,100614.59
2023-02-02T06:08:46.468Z,100613.78
2023-02-02T06:11:16.227Z,100612.06
2023-02-02T06:13:44.863Z,100610.34
2023-02-02T06:16:12.400Z,100613.03
2023-02-02T06:18:39.058Z,100605.22
2023-02-02T06:21:06.410Z,100623.59
2023-02-02T06:23:36.303Z,100628.03
2023-02-02T06:26:04.302Z,100627.94
2023-02-02T06:28:32.055Z,100635.88
2023-02-02T06:31:07.681Z,100633.25
2023-02-02T06:33:34.347Z,100639.41
2023-02-02T06:36:02.396Z,100637.66
2023-02-02T06:38:29.170Z,100642.00
2023-02-02T06:40:58.773Z,100644.78
2023-02-02T06:43:25.333Z,100646.72
2023-02-02T06:45:51.837Z,100642.47
2023-02-02T06:48:18.319Z,100642.56
2023-02-02T06:50:44.812Z,100649.66
2023-02-02T06:53:11.275Z,100650.38
2023-02-02T06:55:38.957Z,100652.84
2023-02-02T06:58:05.457Z,100662.41
2023-02-02T07:00:32.207Z,100662.41
2023-02-02T07:02:59.220Z,100663.19
2023-02-02T07:05:30.844Z,100657.00
2023-02-02T07:07:57.610Z,100661.22
2023-02-02T07:11:11.344Z,100669.94
2023-02-02T07:13:10.576Z,100674.31
2023-02-02T07:15:40.747Z,100678.66
2023-02-02T07:18:07.256Z,100686.47
2023-02-02T07:20:34.081Z,100694.38
2023-02-02T07:23:02.557Z,100692.66
2023-02-02T07:25:29.028Z,100698.00
2023-02-02T07:27:55.626Z,100704.19
2023-02-02T07:30:22.401Z,100712.09
2023-02-02T07:32:49.651Z,100717.59
2023-02-02T07:35:17.254Z,100709.13
2023-02-02T07:37:44.104Z,100722.63
2023-02-02T07:40:13.749Z,100722.03
2023-02-02T07:42:40.428Z,100725.00
2023-02-02T07:45:26.490Z,100730.53
2023-02-02T07:47:59.134Z,100735.09
2023-02-02T07:50:27.369Z,100732.72
2023-02-02T07:52:54.663Z,100742.63
2023-02-02T07:55:21.464Z,100737.56
2023-02-02T07:57:47.971Z,100738.50
2023-02-02T08:00:14.695Z,100740.44
2023-02-02T08:02:41.194Z,100756.41
2023-02-02T08:05:08.034Z,100749.56
2023-02-02T08:07:35.127Z,100750.59
2023-02-02T08:10:01.710Z,100754.22
2023-02-02T08:12:28.469Z,100757.84
2023-02-02T08:14:55.056Z,100766.84
2023-02-02T08:17:22.984Z,100771.41
2023-02-02T08:19:49.465Z,100766.28
2023-02-02T08:22:16.087Z,100765.44
2023-02-02T08:24:42.979Z,100771.75
2023-02-02T08:27:10.066Z,100772.78
2023-02-02T08:29:37.403Z,100770.25
2023-02-02T08:32:04.863Z,100781.69
2023-02-02T08:34:34.653Z,100784.38
2023-02-02T08:37:01.187Z,100784.50
2023-02-02T08:39:27.748Z,100785.53
2023-02-02T08:41:57.594Z,100786.34
2023-02-02T08:44:25.146Z,100790.78
2023-02-02T08:46:54.387Z,100790.88
2023-02-02T08:49:23.138Z,100799.75
2023-02-02T08:51:53.735Z,100803.34
2023-02-02T08:54:20.194Z,100806.13
2023-02-02T08:56:46.585Z,100811.38
2023-02-02T08:59:13.342Z,100815.91
2023-02-02T09:01:39.881Z,100825.75
2023-02-02T09:04:13.249Z,100818.94
2023-02-02T09:06:40.901Z,100815.53
2023-02-02T09:09:10.172Z,100823.50
2023-02-02T09:11:38.653Z,100820.06
2023-02-02T09:14:06.670Z,100833.41
2023-02-02T09:16:35.264Z,100819.56
2023-02-02T09:19:02.435Z,100832.91
2023-02-02T09:21:29.281Z,100821.72
2023-02-02T09:23:55.897Z,100834.19
2023-02-02T09:26:27.970Z,100832.72
2023-02-02T09:29:02.454Z,100831.13
2023-02-02T09:31:35.848Z,100843.53
2023-02-02T09:34:04.082Z,100843.63
2023-02-02T09:36:31.041Z,100851.69
2023-02-02T09:38:58.015Z,100857.72
2023-02-02T09:41:33.930Z,100851.72
2023-02-02T09:44:17.143Z,100862.28
2023-02-02T09:47:21.303Z,100865.91
2023-02-02T09:50:00.829Z,100866.03
2023-02-02T09:52:30.160Z,100875.75
2023-02-02T09:55:07.050Z,100880.25
2023-02-02T09:57:41.304Z,100879.53
2023-02-02T10:00:19.191Z,100881.31
2023-02-02T10:02:49.008Z,100880.56
2023-02-02T10:05:21.304Z,100888.94
2023-02-02T10:07:53.711Z,100894.28
2023-02-02T10:10:33.099Z,100889.03
2023-02-02T10:13:12.623Z,100888.09
2023-02-02T10:15:46.019Z,100882.53
2023-02-02T10:18:31.022Z,100903.34
2023-02-02T10:21:01.068Z,100903.88
2023-02-02T10:23:42.333Z,100907.16
2023-02-02T10:26:18.999Z,100915.78
2023-02-02T10:29:19.197Z,100908.63
2023-02-02T10:31:49.104Z,100912.75
2023-02-02T10:34:34.549Z,100905.69
2023-02-02T10:37:22.511Z,100914.53
2023-02-02T10:40:28.160Z,100922.25
2023-02-02T10:43:31.972Z,100917.72
2023-02-02T10:46:01.391Z,100924.47
2023-02-02T10:48:34.523Z,100929.53
2023-02-02T10:51:16.356Z,100938.44
2023-02-02T10:53:50.345Z,100937.56
2023-02-02T10:56:20.143Z,100937.56
2023-02-02T10:59:05.962Z,100931.31
2023-02-02T11:01:33.070Z,100930.31
2023-02-02T11:04:18.311Z,100920.81
2023-02-02T11:06:50.829Z,100934.31
2023-02-02T11:09:25.086Z,100936.72
2023-02-02T11:11:57.454Z,100944.75
2023-02-02T11:14:44.993Z,100946.47
2023-02-02T11:17:21.630Z,100948.63
2023-02-02T11:19:49.753Z,100954.09
2023-02-02T11:22:38.406Z,100950.09
2023-02-02T11:25:26.879Z,100960.88
2023-02-02T11:27:53.666Z,100961.31
2023-02-02T11:30:30.139Z,100965.19
2023-02-02T11:32:56.694Z,100960.53
2023-02-02T11:35:25.610Z,100951.69
2023-02-02T11:37:53.502Z,100969.94
2023-02-02T11:40:24.324Z,100971.47
2023-02-02T11:42:52.861Z,100960.69
2023-02-02T11:45:29.109Z,100966.00
2023-02-02T11:48:02.188Z,100967.03
2023-02-02T11:50:29.411Z,100969.00
2023-02-02T11:52:56.392Z,100960.31
2023-02-02T11:55:29.383Z,100946.22
2023-02-02T11:58:27.261Z,100958.47
2023-02-02T12:01:00.730Z,100955.81
2023-02-02T12:03:37.166Z,100954.25
2023-02-02T12:06:27.567Z,100952.72
2023-02-02T12:08:58.705Z,100953.25
2023-02-02T12:11:59.229Z,100956.19
2023-02-02T12:14:37.357Z,100953.59
2023-02-02T12:17:17.894Z,100958.16
2023-02-02T12:20:04.048Z,100961.84
2023-02-02T12:23:02.205Z,100964.25
2023-02-02T12:25:32.361Z,100973.97
2023-02-02T12:28:04.913Z,100968.81
2023-02-02T12:30:47.017Z,100966.63
2023-02-02T12:33:47.914Z,100977.47
2023-02-02T12:36:41.821Z,100978.66
2023-02-02T12:39:48.762Z,100974.88
2023-02-02T12:42:33.232Z,100968.75
2023-02-02T12:45:23.909Z,100970.75
2023-02-02T12:48:02.561Z,100979.88
2023-02-02T12:50:42.399Z,100975.41
2023-02-02T12:53:17.031Z,100973.75
2023-02-02T12:56:00.154Z,100970.16
2023-02-02T12:58:41.563Z,100985.88
2023-02-02T13:01:20.235Z,100991.09
2023-02-02T13:03:54.367Z,100987.28
2023-02-02T13:06:42.337Z,100977.22
2023-02-02T13:09:14.057Z,100980.28
2023-02-02T13:11:55.864Z,100970.34
2023-02-02T13:14:35.054Z,100980.72
2023-02-02T13:17:18.388Z,100987.78
2023-02-02T13:19:54.337Z,100986.22
2023-02-02T13:22:32.013Z,100995.78
2023-02-02T13:25:02.438Z,100990.38
2023-02-02T13:27:33.596Z,101003.63
2023-02-02T13:30:10.977Z,100994.16
2023-02-02T13:32:42.381Z,101004.81
2023-02-02T13:35:24.658Z,101006.75
2023-02-02T13:38:04.982Z,101012.28
2023-02-02T13:40:38.513Z,101004.41
2023-02-02T13:43:23.933Z,101007.88
2023-02-02T13:45:53.473Z,101015.66
2023-02-02T13:48:32.832Z,101009.50
2023-02-02T13:51:15.647Z,101013.16
2023-02-02T13:53:52.032Z,101007.19
2023-02-02T13:56:40.583Z,101017.03
2023-02-02T13:59:35.992Z,101017.91
2023-02-02T14:02:04.015Z,101015.22
2023-02-02T14:04:32.104Z,101015.22
2023-02-02T14:07:06.782Z,101016.22
2023-02-02T14:09:37.079Z,101019.94
2023-02-02T14:12:11.221Z,101025.44
2023-02-02T14:14:39.821Z,101029.22
2023-02-02T14:17:13.122Z,101031.25
2023-02-02T14:19:42.389Z,101030.53
2023-02-02T14:22:08.773Z,101034.03
2023-02-02T14:24:35.530Z,101037.38
2023-02-02T14:27:03.736Z,101040.84
2023-02-02T14:29:33.500Z,101042.56
2023-02-02T14:32:04.665Z,101050.50
2023-02-02T14:34:34.208Z,101050.56
2023-02-02T14:37:22.726Z,101044.41
2023-02-02T14:40:10.808Z,101059.34
2023-02-02T14:43:06.746Z,101059.13
2023-02-02T14:45:36.344Z,101060.66
2023-02-02T14:48:09.300Z,101061.28
2023-02-02T14:50:41.168Z,101066.34
2023-02-02T14:53:19.613Z,101077.59
2023-02-02T14:55:57.549Z,101080.78
2023-02-02T14:58:34.899Z,101086.50
2023-02-02T15:01:15.213Z,101085.06
2023-02-02T15:03:49.209Z,101097.84
2023-02-02T15:06:30.470Z,101103.66
2023-02-02T15:09:28.400Z,101104.22
2023-02-02T15:12:08.797Z,101107.63
2023-02-02T15:14:44.488Z,101112.63
2023-02-02T15:17:41.777Z,101119.34
2023-02-02T15:20:26.350Z,101127.03
2023-02-02T15:23:12.248Z,101133.84
2023-02-02T15:26:00.854Z,101127.63
2023-02-02T15:28:58.483Z,101132.97
2023-02-02T15:31:34.120Z,101142.50
2023-02-02T15:34:04.977Z,101150.16
2023-02-02T15:36:35.634Z,101150.97
2023-02-02T15:39:09.807Z,101160.56
2023-02-02T15:41:44.143Z,101157.72
2023-02-02T15:44:26.109Z,101164.69
2023-02-02T15:46:54.086Z,101162.97
2023-02-02T15:49:33.233Z,101170.16
2023-02-02T15:52:10.235Z,101175.50
2023-02-02T15:54:39.674Z,101175.59
2023-02-02T15:57:25.113Z,101175.41
2023-02-02T15:59:51.745Z,101173.31
2023-02-02T16:02:42.963Z,101177.47
2023-02-02T16:05:31.709Z,101185.25
2023-02-02T16:08:06.395Z,101189.50
2023-02-02T16:10:34.352Z,101183.09
2023-02-02T16:13:01.356Z,101193.50
2023-02-02T16:15:29.314Z,101192.44
2023-02-02T16:18:00.111Z,101199.31
2023-02-02T16:20:29.211Z,101205.31
2023-02-02T16:23:01.986Z,101217.41
2023-02-02T16:25:32.334Z,101217.25
2023-02-02T16:28:00.903Z,101223.31
2023-02-02T16:30:30.358Z,101233.81
2023-02-02T16:32:56.922Z,101236.41
2023-02-02T16:35:38.758Z,101235.44
2023-02-02T16:38:17.497Z,101237.16
2023-02-02T16:40:45.611Z,101238.88
2023-02-02T16:43:26.989Z,101246.75
2023-02-02T16:46:03.939Z,101248.56
2023-02-02T16:48:44.454Z,101263.50
2023-02-02T16:51:16.840Z,101266.97
2023-02-02T16:53:46.464Z,101268.69
2023-02-02T16:56:36.241Z,101265.16
2023-02-02T16:59:17.031Z,101259.91
2023-02-02T17:01:49.714Z,101264.34
2023-02-02T17:04:24.553Z,101259.09
2023-02-02T17:06:53.370Z,101261.75
2023-02-02T17:09:28.740Z,101259.19
2023-02-02T17:12:01.481Z,101255.84
2023-02-02T17:14:32.445Z,101261.16
2023-02-02T17:17:00.195Z,101259.56
2023-02-02T17:19:29.336Z,101259.66
2023-02-02T17:22:00.511Z,101254.56
2023-02-02T17:24:27.902Z,101254.66
2023-02-02T17:26:54.473Z,101257.41
2023-02-02T17:29:22.083Z,101249.59
2023-02-02T17:31:48.667Z,101255.03
2023-02-02T17:34:15.515Z,101270.91
2023-02-02T17:36:42.977Z,101269.25
2023-02-02T17:39:11.696Z,101269.25
2023-02-02T17:41:39.084Z,101279.75
2023-02-02T17:44:07.063Z,101276.31
2023-02-02T17:46:37.776Z,101284.13
2023-02-02T17:49:05.525Z,101285.97
2023-02-02T17:51:33.070Z,101284.34
2023-02-02T17:54:00.432Z,101286.16
2023-02-02T17:56:27.479Z,101292.38
2023-02-02T17:58:54.303Z,101289.81
2023-02-02T18:01:20.914Z,101285.50
2023-02-02T18:03:47.798Z,101282.78
2023-02-02T18:06:14.465Z,101288.16
2023-02-02T18:08:40.979Z,101274.84
2023-02-02T18:11:11.031Z,101280.91
2023-02-02T18:13:38.161Z,101281.72
2023-02-02T18:16:06.335Z,101285.25
2023-02-02T18:18:32.777Z,101279.16
2023-02-02T18:20:59.767Z,101280.00
2023-02-02T18:23:26.587Z,101277.38
2023-02-02T18:25:53.389Z,101271.25
2023-02-02T18:28:20.029Z,101277.47
2023-02-02T18:30:49.109Z,101281.88
2023-02-02T18:33:19.998Z,101278.34
2023-02-02T18:35:47.545Z,101267.75
2023-02-02T18:38:14.716Z,101275.50
2023-02-02T18:40:41.277Z,101269.13
2023-02-02T18:43:07.866Z,101268.06
2023-02-02T18:45:34.312Z,101261.59
2023-02-02T18:48:00.786Z,101258.75
2023-02-02T18:50:27.260Z,101252.38
2023-02-02T18:52:53.779Z,101259.19
2023-02-02T18:55:20.229Z,101268.69
2023-02-02T18:57:46.681Z,101272.06
2023-02-02T19:00:14.252Z,101267.56
2023-02-02T19:02:41.533Z,101271.97
2023-02-02T19:05:27.018Z,101279.91
2023-02-02T19:07:57.076Z,101271.00
2023-02-02T19:10:25.975Z,101256.78
2023-02-02T19:13:10.464Z,101252.22
2023-02-02T19:15:39.189Z,101259.03
2023-02-02T19:18:13.540Z,101258.97
2023-02-02T19:20:40.184Z,101253.59
2023-02-02T19:23:18.402Z,101261.53
2023-02-02T19:25:50.820Z,101254.63
2023-02-02T19:28:29.732Z,101266.91
2023-02-02T19:30:59.845Z,101261.66
2023-02-02T19:33:53.586Z,101260.63
2023-02-02T19:36:25.019Z,101259.69
2023-02-02T19:38:55.934Z,101262.13
2023-02-02T19:41:25.025Z,101264.56
2023-02-02T19:43:58.256Z,101269.75
2023-02-02T19:46:27.124Z,101258.28
2023-02-02T19:49:15.005Z,101265.19
2023-02-02T19:51:47.178Z,101264.38
2023-02-02T19:54:27.975Z,101265.13
2023-02-02T19:56:58.562Z,101262.44
2023-02-02T19:59:29.403Z,101260.63
2023-02-02T20:01:56.128Z,101265.00
2023-02-02T20:04:23.316Z,101265.88
2023-02-02T20:06:59.006Z,101259.69
2023-02-02T20:09:29.765Z,101259.56
2023-02-02T20:11:56.732Z,101260.25
2023-02-02T20:14:29.116Z,101260.97
2023-02-02T20:17:02.917Z,101251.13
2023-02-02T20:19:39.106Z,101254.44
2023-02-02T20:22:24.279Z,101253.38
2023-02-02T20:24:50.894Z,101249.84
2023-02-02T20:27:21.540Z,101250.75
2023-02-02T20:29:50.727Z,101248.13
2023-02-02T20:32:20.738Z,101249.03
2023-02-02T20:34:48.694Z,101240.41
2023-02-02T20:37:22.838Z,101240.63
2023-02-02T20:39:56.544Z,101236.34
2023-02-02T20:42:23.596Z,101234.78
2023-02-02T20:44:50.706Z,101240.16
2023-02-02T20:47:17.454Z,101242.03
2023-02-02T20:49:44.483Z,101223.75
2023-02-02T20:52:21.820Z,101235.22
2023-02-02T20:54:48.702Z,101225.69
2023-02-02T20:57:15.363Z,101224.03
2023-02-02T20:59:41.830Z,101227.63
2023-02-02T21:02:08.580Z,101218.88
2023-02-02T21:04:35.119Z,101218.13
2023-02-02T21:07:01.589Z,101219.00
2023-02-02T21:09:28.053Z,101221.72
2023-02-02T21:11:54.601Z,101220.03
2023-02-02T21:14:21.086Z,101215.69
2023-02-02T21:16:47.651Z,101217.59
2023-02-02T21:19:14.418Z,101210.69
2023-02-02T21:21:40.926Z,101194.91
2023-02-02T21:24:07.695Z,101200.19
2023-02-02T21:26:34.197Z,101190.63
2023-02-02T21:29:00.730Z,101188.13
2023-02-02T21:31:27.798Z,101182.88
2023-02-02T21:33:54.620Z,101181.97
2023-02-02T21:36:42.479Z,101170.44
2023-02-02T21:39:22.722Z,101178.25
2023-02-02T21:41:50.724Z,101173.00
2023-02-02T21:44:19.816Z,101170.44
2023-02-02T21:46:49.003Z,101167.00
2023-02-02T21:49:38.268Z,101170.50
2023-02-02T21:52:15.073Z,101159.97
2023-02-02T21:54:42.242Z,101164.31
2023-02-02T21:57:19.094Z,101155.47
2023-02-02T21:59:51.580Z,101139.78
2023-02-02T22:02:44.131Z,101147.66
2023-02-02T22:05:18.112Z,101137.91
2023-02-02T22:07:49.577Z,101141.44
2023-02-02T22:10:29.588Z,101126.63
2023-02-02T22:12:56.120Z,101138.84
2023-02-02T22:15:26.922Z,101130.06
2023-02-02T22:17:53.480Z,101126.53
2023-02-02T22:20:32.233Z,101131.84
2023-02-02T22:23:01.512Z,101137.03
2023-02-02T22:25:33.678Z,101126.53
2023-02-02T22:28:04.903Z,101121.13
2023-02-02T22:30:39.355Z,101123.69
2023-02-02T22:33:07.814Z,101124.59
2023-02-02T22:35:36.881Z,101122.78
2023-02-02T22:38:04.371Z,101117.53
2023-02-02T22:40:31.433Z,101108.78
2023-02-02T22:43:00.277Z,101096.53
2023-02-02T22:45:28.050Z,101096.53
2023-02-02T22:47:54.667Z,101090.47
2023-02-02T22:50:25.526Z,101085.25
2023-02-02T22:52:52.865Z,101087.84
2023-02-02T22:55:20.264Z,101074.75
2023-02-02T22:57:47.314Z,101067.69
2023-02-02T23:00:17.502Z,101060.69
2023-02-02T23:02:44.039Z,101065.94
2023-02-02T23:05:13.386Z,101059.78
2023-02-02T23:07:40.311Z,101049.22
2023-02-02T23:10:08.283Z,101044.00
2023-02-02T23:12:35.724Z,101031.75
2023-02-02T23:15:02.639Z,101022.06
2023-02-02T23:17:29.378Z,101026.47
2023-02-02T23:19:55.940Z,101025.59
2023-02-02T23:22:23.792Z,101026.47
2023-02-02T23:24:50.365Z,101023.91
2023-02-02T23:27:16.812Z,101019.66
2023-02-02T23:29:43.346Z,101016.22
2023-02-02T23:32:09.975Z,101028.50
2023-02-02T23:34:36.419Z,101014.41
2023-02-02T23:37:02.968Z,101001.28
2023-02-02T23:39:30.595Z,100998.72
2023-02-02T23:41:57.120Z,101003.19
2023-02-02T23:44:23.660Z,101002.34
2023-02-02T23:46:51.965Z,100993.66
2023-02-02T23:49:18.899Z,100989.09
2023-02-02T23:51:46.027Z,100979.44
2023-02-02T23:54:13.617Z,100975.06
2023-02-02T23:56:42.482Z,100966.31
2023-02-02T23:59:10.567Z,100970.72
